Time;durP1;ratioP1;P1;durP2;ratioP2;P2;SDS_P1;SDS_P2;PMS_P1;PMS_P2;Temp;Humidity;BMP_temperature;BMP_pressure;BME280_temperature;BME280_humidity;BME280_pressure;Samples;Min_cycle;Max_cycle;Signal;HPM_P1;HPM_P2
2021/06/24 00:01:11;;;;;;;;;;;;;;;18.94;53.92;101985.28;5077949;28;1890;-58
2021/06/24 00:03:36;;;;;;;;;;;;;;;18.94;53.79;101985.28;5077976;28;1526;-57
2021/06/24 00:06:01;;;;;;;;;;;;;;;18.94;53.96;101990.69;5075954;28;1968;-59
2021/06/24 00:08:26;;;;;;;;;;;;;;;18.94;53.52;101992.53;5077619;28;1913;-58
2021/06/24 00:10:51;;;;;;;;;;;;;;;18.93;53.80;101991.66;5077101;28;1750;-58
2021/06/24 00:13:16;;;;;;;;;;;;;;;18.93;54.14;101988.09;5076999;28;1905;-59
2021/06/24 00:15:41;;;;;;;;;;;;;;;18.92;53.86;101981.84;5076776;28;1741;-58
2021/06/24 00:18:06;;;;;;;;;;;;;;;18.91;54.29;101980.13;5076784;28;1652;-58
2021/06/24 00:20:32;;;;;;;;;;;;;;;18.91;54.13;101982.84;5076413;28;1753;-56
2021/06/24 00:22:57;;;;;;;;;;;;;;;18.90;53.98;101982.94;5076769;28;1827;-58
2021/06/24 00:25:22;;;;;;;;;;;;;;;18.90;54.19;101981.09;5076635;28;1692;-58
2021/06/24 00:27:47;;;;;;;;;;;;;;;18.90;54.09;101982.94;5075447;28;1685;-59
2021/06/24 00:30:12;;;;;;;;;;;;;;;18.89;53.90;101978.53;5076757;28;1897;-59
2021/06/24 00:32:37;;;;;;;;;;;;;;;18.89;53.82;101975.84;5076769;28;1956;-59
2021/06/24 00:35:02;;;;;;;;;;;;;;;18.87;53.98;101978.66;5076304;28;1788;-59
2021/06/24 00:37:27;;;;;;;;;;;;;;;18.87;54.51;101977.78;5075478;28;1588;-59
2021/06/24 00:39:52;;;;;;;;;;;;;;;18.86;53.99;101982.34;5077003;28;1752;-59
2021/06/24 00:42:18;;;;;;;;;;;;;;;18.87;53.73;101977.78;5076924;28;1848;-60
2021/06/24 00:44:43;;;;;;;;;;;;;;;18.86;53.92;101971.53;5074582;28;1752;-59
2021/06/24 00:47:08;;;;;;;;;;;;;;;18.86;54.38;101976.94;5073636;28;1853;-60
2021/06/24 00:49:33;;;;;;;;;;;;;;;18.86;53.86;101976.06;5076686;28;1556;-59
2021/06/24 00:51:58;;;;;;;;;;;;;;;18.85;53.96;101968.97;5076620;28;1966;-60
2021/06/24 00:54:23;;;;;;;;;;;;;;;18.84;53.73;101968.09;5070312;28;1886;-60
2021/06/24 00:56:48;;;;;;;;;;;;;;;18.83;53.84;101960.13;5076027;28;1570;-60
2021/06/24 00:59:13;;;;;;;;;;;;;;;18.84;53.79;101969.94;5069240;28;2747;-58
2021/06/24 01:01:38;;;;;;;;;;;;;;;18.83;53.71;101977.19;5076525;28;1817;-58
2021/06/24 01:04:03;;;;;;;;;;;;;;;18.82;54.17;101980.88;5075887;28;1927;-59
2021/06/24 01:06:28;;;;;;;;;;;;;;;18.81;53.84;101976.44;5075151;28;1881;-57
2021/06/24 01:08:53;;;;;;;;;;;;;;;18.81;53.50;101976.44;5076476;28;1962;-59
2021/06/24 01:11:19;;;;;;;;;;;;;;;18.81;54.24;101975.63;5076775;28;1851;-59
2021/06/24 01:13:44;;;;;;;;;;;;;;;18.80;53.98;101971.19;5075483;28;2072;-59
2021/06/24 01:16:09;;;;;;;;;;;;;;;18.80;54.19;101976.59;5075604;28;1708;-58
2021/06/24 01:18:34;;;;;;;;;;;;;;;18.79;54.19;101981.13;5075672;28;1711;-56
2021/06/24 01:20:59;;;;;;;;;;;;;;;18.79;53.57;101994.66;5075820;28;1723;-59
2021/06/24 01:23:24;;;;;;;;;;;;;;;18.79;53.65;101997.34;5075609;28;2190;-59
2021/06/24 01:25:49;;;;;;;;;;;;;;;18.78;53.89;101998.31;5075938;28;1690;-58
2021/06/24 01:28:14;;;;;;;;;;;;;;;18.77;53.78;101991.22;5076436;28;1771;-60
2021/06/24 01:30:39;;;;;;;;;;;;;;;18.78;53.41;101994.78;5076788;28;980;-60
2021/06/24 01:33:04;;;;;;;;;;;;;;;18.77;53.83;101993.91;5076114;28;1954;-61
2021/06/24 01:35:30;;;;;;;;;;;;;;;18.76;53.85;101981.38;5077299;28;1052;-61
2021/06/24 01:37:55;;;;;;;;;;;;;;;18.76;53.92;101981.38;5058694;28;1312;-61
2021/06/24 01:40:20;;;;;;;;;;;;;;;18.75;53.95;101976.97;5077263;28;802;-60
2021/06/24 01:42:45;;;;;;;;;;;;;;;18.75;53.86;101979.66;5062685;28;2103;-61
2021/06/24 01:45:10;;;;;;;;;;;;;;;18.76;53.90;101981.38;5056368;28;842;-61
2021/06/24 01:47:35;;;;;;;;;;;;;;;18.75;54.42;101973.41;5057000;28;1614;-60
2021/06/24 01:50:00;;;;;;;;;;;;;;;18.75;54.06;101974.28;5060945;28;1878;-60
2021/06/24 01:52:25;;;;;;;;;;;;;;;18.73;53.99;101971.69;5076636;28;1959;-60
2021/06/24 01:54:50;;;;;;;;;;;;;;;18.73;54.09;101963.59;5075186;28;1910;-61
2021/06/24 01:57:16;;;;;;;;;;;;;;;18.72;54.29;101969.97;5076024;28;2013;-60
2021/06/24 01:59:41;;;;;;;;;;;;;;;18.73;54.20;101976.22;5076559;28;815;-60
2021/06/24 02:02:07;;;;;;;;;;;;;;;18.73;54.65;101973.53;5076526;28;1060;-60
2021/06/24 02:04:32;;;;;;;;;;;;;;;18.73;54.34;101973.53;5076770;28;807;-60
2021/06/24 02:06:57;;;;;;;;;;;;;;;18.71;54.08;101967.38;5076290;28;1846;-59
2021/06/24 02:09:22;;;;;;;;;;;;;;;18.71;53.96;101959.28;5076204;28;1207;-59
2021/06/24 02:11:47;;;;;;;;;;;;;;;18.70;54.25;101949.47;5076220;28;1903;-59
2021/06/24 02:14:12;;;;;;;;;;;;;;;18.70;54.31;101938.66;5075868;28;956;-57
2021/06/24 02:16:37;;;;;;;;;;;;;;;18.69;54.12;101936.94;5075981;28;1886;-60
2021/06/24 02:19:02;;;;;;;;;;;;;;;18.70;54.19;101933.28;5076211;28;830;-60
2021/06/24 02:21:27;;;;;;;;;;;;;;;18.69;54.66;101931.56;5076139;28;1568;-60
2021/06/24 02:23:52;;;;;;;;;;;;;;;18.70;54.35;101944.06;5075884;28;1044;-60
2021/06/24 02:26:17;;;;;;;;;;;;;;;18.68;54.66;101940.63;5075841;28;1924;-58
2021/06/24 02:28:43;;;;;;;;;;;;;;;18.68;54.38;101937.94;5076115;28;897;-60
2021/06/24 02:31:08;;;;;;;;;;;;;;;18.68;54.32;101940.63;5075583;28;1525;-60
2021/06/24 02:33:33;;;;;;;;;;;;;;;18.67;54.15;101941.63;5075717;28;1964;-60
2021/06/24 02:35:58;;;;;;;;;;;;;;;18.68;54.24;101948.72;5075242;28;1937;-60
2021/06/24 02:38:23;;;;;;;;;;;;;;;18.67;54.20;101949.72;5075412;28;1866;-58
2021/06/24 02:40:48;;;;;;;;;;;;;;;18.66;54.45;101948.84;5076213;28;1593;-58
2021/06/24 02:43:13;;;;;;;;;;;;;;;18.66;54.55;101950.69;5075748;28;968;-58
2021/06/24 02:45:41;;;;;;;;;;;;;;;18.66;54.41;101943.47;5075410;28;1962;-58
2021/06/24 02:48:06;;;;;;;;;;;;;;;18.65;54.81;101936.34;5075794;28;948;-58
2021/06/24 02:50:31;;;;;;;;;;;;;;;18.64;54.60;101945.41;5075703;28;1626;-59
2021/06/24 02:52:56;;;;;;;;;;;;;;;18.64;54.07;101949.97;5075655;28;1901;-58
2021/06/24 02:55:21;;;;;;;;;;;;;;;18.64;54.34;101950.81;5075145;28;2092;-58
2021/06/24 02:57:46;;;;;;;;;;;;;;;18.63;54.22;101943.69;5075602;28;809;-58
2021/06/24 03:00:11;;;;;;;;;;;;;;;18.62;54.52;101938.44;5075370;28;830;-58
2021/06/24 03:02:36;;;;;;;;;;;;;;;18.62;54.80;101931.22;5075154;28;1064;-57
2021/06/24 03:05:01;;;;;;;;;;;;;;;18.63;54.15;101937.47;5075205;28;1921;-58
2021/06/24 03:07:26;;;;;;;;;;;;;;;18.61;54.63;101932.19;5075090;28;988;-59
2021/06/24 03:09:52;;;;;;;;;;;;;;;18.62;53.98;101936.63;5075228;28;1612;-59
2021/06/24 03:12:17;;;;;;;;;;;;;;;18.61;53.96;101932.19;5075489;28;1981;-59
2021/06/24 03:14:42;;;;;;;;;;;;;;;18.61;54.80;101936.72;5075045;28;1930;-59
2021/06/24 03:17:07;;;;;;;;;;;;;;;18.61;54.41;101947.53;5074594;28;2089;-59
2021/06/24 03:19:32;;;;;;;;;;;;;;;18.59;54.47;101936.84;5074966;28;1474;-59
2021/06/24 03:21:57;;;;;;;;;;;;;;;18.59;54.32;101936.00;5074788;28;973;-58
2021/06/24 03:24:22;;;;;;;;;;;;;;;18.58;54.40;101945.91;5074490;28;1981;-58
2021/06/24 03:26:47;;;;;;;;;;;;;;;18.59;54.33;101939.56;5074953;28;864;-59
2021/06/24 03:29:12;;;;;;;;;;;;;;;18.58;53.92;101939.66;5075495;28;1533;-58
2021/06/24 03:31:37;;;;;;;;;;;;;;;18.57;54.63;101936.09;5074984;28;845;-59
2021/06/24 03:34:02;;;;;;;;;;;;;;;18.57;54.09;101944.19;5074711;28;1909;-58
2021/06/24 03:36:28;;;;;;;;;;;;;;;18.57;54.26;101943.31;5074505;28;1910;-59
2021/06/24 03:38:53;;;;;;;;;;;;;;;18.56;54.87;101933.50;5074604;28;1984;-59
2021/06/24 03:41:25;;;;;;;;;;;;;;;18.57;54.38;101935.22;5074946;28;1162;-59
2021/06/24 03:43:50;;;;;;;;;;;;;;;18.55;54.46;101929.09;5071937;28;1868;-59
2021/06/24 03:46:15;;;;;;;;;;;;;;;18.55;54.49;101921.00;5061988;28;1843;-59
2021/06/24 03:48:41;;;;;;;;;;;;;;;18.55;54.49;101923.69;5074819;28;988;-59
2021/06/24 03:51:06;;;;;;;;;;;;;;;18.55;54.44;101937.19;5074981;28;968;-59
2021/06/24 03:53:32;;;;;;;;;;;;;;;18.54;54.36;101932.78;5074568;28;1965;-59
2021/06/24 03:55:57;;;;;;;;;;;;;;;18.55;54.34;101934.50;5054866;28;871;-59
2021/06/24 03:58:22;;;;;;;;;;;;;;;18.54;54.31;101927.38;5055013;28;992;-59
2021/06/24 04:00:50;;;;;;;;;;;;;;;18.54;54.33;101927.38;5055040;28;949;-59
2021/06/24 04:03:15;;;;;;;;;;;;;;;18.53;54.07;101925.66;5065592;28;1888;-58
2021/06/24 04:05:40;;;;;;;;;;;;;;;18.53;54.43;101931.91;5075005;28;1655;-59
2021/06/24 04:08:05;;;;;;;;;;;;;;;18.52;54.66;101930.19;5074535;28;849;-58
2021/06/24 04:10:30;;;;;;;;;;;;;;;18.52;54.11;101924.78;5074723;28;1271;-58
2021/06/24 04:12:55;;;;;;;;;;;;;;;18.52;53.97;101923.94;5074384;28;2016;-58
2021/06/24 04:15:21;;;;;;;;;;;;;;;18.51;54.31;101923.06;5074575;28;861;-58
2021/06/24 04:17:46;;;;;;;;;;;;;;;18.51;54.19;101922.22;5074825;28;1064;-59
2021/06/24 04:20:11;;;;;;;;;;;;;;;18.51;54.39;101922.22;5074619;28;890;-58
2021/06/24 04:22:36;;;;;;;;;;;;;;;18.49;54.38;101914.25;5074546;28;2382;-58
2021/06/24 04:25:01;;;;;;;;;;;;;;;18.50;54.59;101920.50;5074582;28;1738;-58
2021/06/24 04:27:26;;;;;;;;;;;;;;;18.50;54.21;101923.19;5056677;28;1018;-58
2021/06/24 04:29:51;;;;;;;;;;;;;;;18.50;54.40;101917.78;5074877;28;928;-58
2021/06/24 04:32:16;;;;;;;;;;;;;;;18.49;54.60;101921.47;5075842;28;1949;-59
2021/06/24 04:34:41;;;;;;;;;;;;;;;18.48;54.20;101915.22;5060213;28;1763;-58
2021/06/24 04:37:06;;;;;;;;;;;;;;;18.49;54.41;101918.78;5059755;28;1331;-60
2021/06/24 04:39:31;;;;;;;;;;;;;;;18.49;54.33;101918.78;5078460;28;902;-60
2021/06/24 04:41:56;;;;;;;;;;;;;;;18.49;54.34;101916.09;5077326;28;1996;-59
2021/06/24 04:44:21;;;;;;;;;;;;;;;18.47;54.27;101921.59;5077949;28;1903;-59
2021/06/24 04:46:47;;;;;;;;;;;;;;;18.48;54.42;101926.03;5078119;28;885;-59
2021/06/24 04:49:12;;;;;;;;;;;;;;;18.49;54.52;101932.28;5077903;28;1605;-59
2021/06/24 04:51:37;;;;;;;;;;;;;;;18.47;54.26;101929.69;5059425;28;1978;-59
2021/06/24 04:54:02;;;;;;;;;;;;;;;18.48;54.25;101927.84;5077423;28;1958;-59
2021/06/24 04:56:27;;;;;;;;;;;;;;;18.48;54.35;101922.47;5076911;28;1932;-59
2021/06/24 04:58:52;;;;;;;;;;;;;;;18.50;54.24;101920.50;5077326;28;1713;-59
2021/06/24 05:01:17;;;;;;;;;;;;;;;18.53;54.77;101914.84;5077173;28;2091;-59
2021/06/24 05:03:42;;;;;;;;;;;;;;;18.54;54.43;101905.78;5077362;28;1439;-59
2021/06/24 05:06:09;;;;;;;;;;;;;;;18.54;55.72;101900.38;5077998;28;992;-59
2021/06/24 05:08:35;;;;;;;;;;;;;;;18.54;55.26;101897.69;5077455;28;1523;-58
2021/06/24 05:11:00;;;;;;;;;;;;;;;18.57;55.55;101905.53;5076803;28;2001;-59
2021/06/24 05:13:26;;;;;;;;;;;;;;;18.55;54.68;101902.09;5076172;28;1975;-59
2021/06/24 05:15:51;;;;;;;;;;;;;;;18.54;55.45;101901.22;5076726;28;1641;-59
2021/06/24 05:18:16;;;;;;;;;;;;;;;18.55;55.67;101899.41;5076809;28;1542;-60
2021/06/24 05:20:41;;;;;;;;;;;;;;;18.54;55.04;101900.38;5076436;28;1833;-60
2021/06/24 05:23:06;;;;;;;;;;;;;;;18.56;55.44;101901.97;5076389;28;1630;-60
2021/06/24 05:25:31;;;;;;;;;;;;;;;18.56;55.46;101898.41;5076535;28;1677;-58
2021/06/24 05:27:56;;;;;;;;;;;;;;;18.56;55.65;101890.31;5076698;28;1551;-60
2021/06/24 05:30:21;;;;;;;;;;;;;;;18.57;54.88;101892.03;5076600;28;1720;-60
2021/06/24 05:32:46;;;;;;;;;;;;;;;18.57;55.27;101900.13;5076323;28;1947;-61
2021/06/24 05:35:11;;;;;;;;;;;;;;;18.57;54.92;101898.28;5076441;28;1770;-60
2021/06/24 05:37:36;;;;;;;;;;;;;;;18.58;55.21;101893.75;5076273;28;1665;-60
2021/06/24 05:40:01;;;;;;;;;;;;;;;18.59;54.98;101903.59;5076627;28;1126;-60
2021/06/24 05:42:26;;;;;;;;;;;;;;;18.58;54.19;101904.53;5076006;28;1017;-60
2021/06/24 05:44:51;;;;;;;;;;;;;;;18.59;54.44;101898.19;5076670;28;925;-60
2021/06/24 05:47:17;;;;;;;;;;;;;;;18.60;54.54;101898.06;5076497;28;1854;-60
2021/06/24 05:49:42;;;;;;;;;;;;;;;18.59;54.67;101893.66;5076221;28;1672;-60
2021/06/24 05:52:07;;;;;;;;;;;;;;;18.60;54.46;101892.69;5075453;28;1889;-58
2021/06/24 05:54:32;;;;;;;;;;;;;;;18.61;54.57;101890.84;5075728;28;1718;-59
2021/06/24 05:56:57;;;;;;;;;;;;;;;18.63;54.67;101888.88;5058226;28;1650;-59
2021/06/24 05:59:22;;;;;;;;;;;;;;;18.63;54.15;101886.16;5076799;28;1909;-60
2021/06/24 06:01:47;;;;;;;;;;;;;;;18.63;54.30;101872.69;5058370;28;826;-60
2021/06/24 06:04:13;;;;;;;;;;;;;;;18.65;54.28;101878.78;5076363;28;851;-60
2021/06/24 06:06:38;;;;;;;;;;;;;;;18.66;54.46;101875.09;5076435;28;989;-60
2021/06/24 06:09:03;;;;;;;;;;;;;;;18.68;54.03;101867.72;5056658;28;2004;-60
2021/06/24 06:11:28;;;;;;;;;;;;;;;18.69;54.95;101869.44;5056492;28;1410;-60
2021/06/24 06:13:53;;;;;;;;;;;;;;;18.68;55.22;101867.72;5055830;28;1973;-60
2021/06/24 06:16:18;;;;;;;;;;;;;;;18.70;54.76;101868.47;5056283;28;962;-60
2021/06/24 06:18:44;;;;;;;;;;;;;;;18.70;55.15;101868.47;5072200;28;2043;-60
2021/06/24 06:21:09;;;;;;;;;;;;;;;18.70;55.45;101866.63;5076165;28;921;-60
2021/06/24 06:23:34;;;;;;;;;;;;;;;18.71;54.80;101859.38;5075942;28;976;-61
2021/06/24 06:25:59;;;;;;;;;;;;;;;18.72;54.96;101870.06;5076070;28;850;-60
2021/06/24 06:28:24;;;;;;;;;;;;;;;18.73;54.74;101871.78;5059115;28;1898;-60
2021/06/24 06:30:50;;;;;;;;;;;;;;;18.75;55.05;101870.78;5055960;28;832;-59
2021/06/24 06:33:15;;;;;;;;;;;;;;;18.75;55.02;101865.38;5056109;28;1893;-60
2021/06/24 06:35:40;;;;;;;;;;;;;;;18.76;55.23;101864.41;5055541;28;922;-60
2021/06/24 06:38:05;;;;;;;;;;;;;;;18.78;54.73;101866.00;5068758;28;1911;-60
2021/06/24 06:40:30;;;;;;;;;;;;;;;18.79;54.56;101864.16;5075227;28;882;-60
2021/06/24 06:42:55;;;;;;;;;;;;;;;18.80;54.79;101872.13;5075291;28;898;-60
2021/06/24 06:45:22;;;;;;;;;;;;;;;18.80;54.67;101864.03;5075254;28;1971;-60
2021/06/24 06:47:47;;;;;;;;;;;;;;;18.81;54.77;101860.31;5075812;28;975;-60
2021/06/24 06:50:12;;;;;;;;;;;;;;;18.81;54.66;101873.00;5075813;28;886;-60
2021/06/24 06:52:37;;;;;;;;;;;;;;;18.81;54.79;101875.69;5074785;28;1963;-60
2021/06/24 06:55:02;;;;;;;;;;;;;;;18.79;54.77;101875.81;5071461;28;1752;-60
2021/06/24 06:57:27;;;;;;;;;;;;;;;18.81;54.72;101873.81;5064427;28;1789;-61
2021/06/24 06:59:52;;;;;;;;;;;;;;;18.81;55.11;101878.38;5070438;28;1789;-60
2021/06/24 07:02:17;;;;;;;;;;;;;;;18.81;54.83;101875.69;5068548;28;2378;-60
2021/06/24 07:04:42;;;;;;;;;;;;;;;18.82;55.28;101880.94;5074502;28;1730;-59
2021/06/24 07:07:07;;;;;;;;;;;;;;;18.81;55.16;101879.22;5073940;28;2083;-59
2021/06/24 07:09:32;;;;;;;;;;;;;;;18.82;55.15;101883.63;5074661;28;1742;-60
2021/06/24 07:11:57;;;;;;;;;;;;;;;18.82;55.64;101882.78;5073017;28;1969;-60
2021/06/24 07:14:24;;;;;;;;;;;;;;;18.83;55.19;101881.78;5073461;28;1649;-59
2021/06/24 07:16:49;;;;;;;;;;;;;;;18.83;55.78;101874.56;5073726;28;1728;-60
2021/06/24 07:19:14;;;;;;;;;;;;;;;18.86;56.09;101878.84;5073816;28;1739;-60
2021/06/24 07:21:39;;;;;;;;;;;;;;;18.86;55.94;101876.13;5074058;28;1602;-59
2021/06/24 07:24:04;;;;;;;;;;;;;;;18.87;55.28;101870.63;5074551;28;1711;-61
2021/06/24 07:26:29;;;;;;;;;;;;;;;18.89;55.95;101879.44;5074706;28;1816;-59
2021/06/24 07:28:54;;;;;;;;;;;;;;;18.92;55.29;101868.41;5074707;28;1984;-60
2021/06/24 07:31:19;;;;;;;;;;;;;;;18.93;55.86;101874.66;5055829;28;1643;-60
2021/06/24 07:33:44;;;;;;;;;;;;;;;18.96;55.20;101877.97;5073597;28;1910;-60
2021/06/24 07:36:10;;;;;;;;;;;;;;;18.99;55.92;101879.53;5074732;28;2724;-60
2021/06/24 07:38:35;;;;;;;;;;;;;;;18.99;55.31;101874.97;5071374;28;1802;-60
2021/06/24 07:41:00;;;;;;;;;;;;;;;18.99;55.80;101874.13;5074566;28;1650;-60
2021/06/24 07:43:25;;;;;;;;;;;;;;;19.00;55.44;101871.28;5072417;28;1675;-60
2021/06/24 07:45:51;;;;;;;;;;;;;;;19.01;55.63;101873.00;5072992;28;1979;-59
2021/06/24 07:48:17;;;;;;;;;;;;;;;19.00;55.24;101882.09;5072867;28;1677;-60
2021/06/24 07:50:42;;;;;;;;;;;;;;;19.01;55.75;101891.91;5074022;28;1770;-59
2021/06/24 07:53:07;;;;;;;;;;;;;;;19.00;55.25;101892.91;5073477;28;2024;-59
2021/06/24 07:55:35;;;;;;;;;;;;;;;18.99;55.46;101880.38;5073849;28;1722;-60
2021/06/24 07:58:00;;;;;;;;;;;;;;;18.98;55.40;101878.69;5072376;28;1576;-61
2021/06/24 08:00:25;;;;;;;;;;;;;;;19.00;55.77;101886.66;5073413;28;1657;-59
2021/06/24 08:02:50;;;;;;;;;;;;;;;18.99;55.41;101891.19;5073354;28;1716;-60
2021/06/24 08:05:16;;;;;;;;;;;;;;;18.99;55.50;101896.59;5052412;28;1690;-61
2021/06/24 08:07:44;;;;;;;;;;;;;;;18.99;55.72;101890.31;5075484;28;1606;-61
2021/06/24 08:10:09;;;;;;;;;;;;;;;19.01;55.38;101883.81;5078080;28;1809;-61
2021/06/24 08:12:34;;;;;;;;;;;;;;;19.00;55.26;101882.09;5078114;28;1971;-61
2021/06/24 08:14:59;;;;;;;;;;;;;;;18.99;55.74;101877.69;5077096;28;1776;-60
2021/06/24 08:17:24;;;;;;;;;;;;;;;19.01;55.37;101881.13;5077997;28;1755;-60
2021/06/24 08:19:50;;;;;;;;;;;;;;;19.02;55.69;101876.56;5077125;28;1566;-60
2021/06/24 08:22:15;;;;;;;;;;;;;;;19.03;55.38;101878.28;5077592;28;2104;-60
2021/06/24 08:24:40;;;;;;;;;;;;;;;19.03;54.75;101881.84;5076542;28;1735;-60
2021/06/24 08:27:05;;;;;;;;;;;;;;;19.02;55.29;101874.72;5072086;28;1754;-59
2021/06/24 08:29:30;;;;;;;;;;;;;;;19.06;54.98;101872.63;5077900;28;2000;-60
2021/06/24 08:31:57;;;;;;;;;;;;;;;19.07;54.67;101869.81;5077649;28;1979;-60
2021/06/24 08:34:22;;;;;;;;;;;;;;;19.10;54.64;101870.53;5075599;28;2031;-60
2021/06/24 08:36:47;;;;;;;;;;;;;;;19.10;54.08;101867.81;5077141;28;1687;-60
2021/06/24 08:39:12;;;;;;;;;;;;;;;19.11;54.55;101858.75;5077075;28;1727;-59
2021/06/24 08:41:37;;;;;;;;;;;;;;;19.13;53.89;101863.03;5074399;28;1640;-60
2021/06/24 08:44:02;;;;;;;;;;;;;;;19.13;54.02;101872.97;5076276;28;1644;-60
2021/06/24 08:46:27;;;;;;;;;;;;;;;19.11;53.81;101869.53;5077435;28;1775;-60
2021/06/24 08:48:52;;;;;;;;;;;;;;;19.13;54.00;101871.13;5077619;28;2086;-60
2021/06/24 08:51:18;;;;;;;;;;;;;;;19.13;54.22;101879.25;5075750;28;1902;-61
2021/06/24 08:53:43;;;;;;;;;;;;;;;19.12;53.90;101874.81;5076610;28;1894;-60
2021/06/24 08:56:08;;;;;;;;;;;;;;;19.11;53.90;101880.34;5077101;28;1712;-60
2021/06/24 08:58:36;;;;;;;;;;;;;;;19.12;53.78;101869.41;5071676;28;1944;-61
2021/06/24 09:01:01;;;;;;;;;;;;;;;19.11;53.93;101872.25;5077366;28;1785;-61
2021/06/24 09:03:28;;;;;;;;;;;;;;;19.15;54.61;101879.13;5073747;28;1824;-61
2021/06/24 09:05:53;;;;;;;;;;;;;;;19.18;54.45;101879.69;5074368;28;2105;-61
2021/06/24 09:08:18;;;;;;;;;;;;;;;19.19;54.38;101883.25;5076953;28;1725;-60
2021/06/24 09:10:43;;;;;;;;;;;;;;;19.24;54.79;101883.72;5073603;28;2107;-61
2021/06/24 09:13:08;;;;;;;;;;;;;;;19.22;54.93;101883.00;5074503;28;2080;-62
2021/06/24 09:15:33;;;;;;;;;;;;;;;19.21;54.31;101886.69;5075793;28;1582;-61
2021/06/24 09:17:58;;;;;;;;;;;;;;;19.21;54.51;101887.53;5074981;28;1484;-61
2021/06/24 09:20:24;;;;;;;;;;;;;;;19.24;54.75;101890.00;5074619;28;1512;-60
2021/06/24 09:22:49;;;;;;;;;;;;;;;19.26;54.54;101889.84;5074722;28;1488;-60
2021/06/24 09:25:14;;;;;;;;;;;;;;;19.27;53.68;101886.16;5072367;28;1596;-61
2021/06/24 09:27:39;;;;;;;;;;;;;;;19.24;53.91;101891.84;5057017;28;1395;-61
2021/06/24 09:30:04;;;;;;;;;;;;;;;19.23;54.00;101893.69;5074939;28;1384;-61
2021/06/24 09:32:30;;;;;;;;;;;;;;;19.23;53.99;101890.97;5074434;28;1898;-61
2021/06/24 09:34:55;;;;;;;;;;;;;;;19.23;54.33;101885.56;5075138;28;1468;-60
2021/06/24 09:37:20;;;;;;;;;;;;;;;19.25;53.85;101888.16;5072156;28;1378;-60
2021/06/24 09:39:47;;;;;;;;;;;;;;;19.26;54.07;101884.44;5045424;28;1487;-60
2021/06/24 09:42:12;;;;;;;;;;;;;;;19.26;54.11;101887.16;5075562;28;1399;-60
2021/06/24 09:44:38;;;;;;;;;;;;;;;19.24;54.14;101881.03;5075469;28;1331;-60
2021/06/24 09:47:03;;;;;;;;;;;;;;;19.27;54.08;101886.16;5075507;28;1438;-60
2021/06/24 09:49:28;;;;;;;;;;;;;;;19.30;53.84;101889.47;5075029;28;1419;-60
2021/06/24 09:51:53;;;;;;;;;;;;;;;19.33;54.33;101885.66;5075341;28;1529;-60
2021/06/24 09:54:18;;;;;;;;;;;;;;;19.34;54.53;101892.78;5075105;28;1914;-61
2021/06/24 09:56:44;;;;;;;;;;;;;;;19.34;54.32;101895.50;5075302;28;1489;-60
2021/06/24 09:59:09;;;;;;;;;;;;;;;19.32;54.79;101898.31;5075111;28;1450;-60
2021/06/24 10:01:35;;;;;;;;;;;;;;;19.35;53.55;101898.03;5074840;28;1489;-61
2021/06/24 10:04:01;;;;;;;;;;;;;;;19.34;54.40;101899.03;5075989;28;1675;-60
2021/06/24 10:06:26;;;;;;;;;;;;;;;19.41;54.23;101892.09;5073609;28;1935;-61
2021/06/24 10:08:51;;;;;;;;;;;;;;;19.44;53.86;101901.81;5075036;28;1565;-61
2021/06/24 10:11:16;;;;;;;;;;;;;;;19.44;53.65;101896.41;5074718;28;1827;-61
2021/06/24 10:13:41;;;;;;;;;;;;;;;19.47;54.11;101901.56;5075364;28;1909;-60
2021/06/24 10:16:06;;;;;;;;;;;;;;;19.48;53.21;101888.91;5074910;28;1856;-61
2021/06/24 10:18:31;;;;;;;;;;;;;;;19.47;53.57;101884.47;5072085;28;1596;-59
2021/06/24 10:20:56;;;;;;;;;;;;;;;19.45;54.50;101881.91;5074895;28;1942;-60
2021/06/24 10:23:21;;;;;;;;;;;;;;;19.48;53.68;101869.97;5075091;28;1781;-58
2021/06/24 10:25:47;;;;;;;;;;;;;;;19.47;53.76;101879.91;5072971;28;1773;-59
2021/06/24 10:28:12;;;;;;;;;;;;;;;19.53;53.61;101878.53;5075215;28;1899;-60
2021/06/24 10:30:37;;;;;;;;;;;;;;;19.55;54.20;101877.44;5072523;28;1723;-59
2021/06/24 10:33:03;;;;;;;;;;;;;;;19.55;53.59;101880.13;5073801;28;1898;-59
2021/06/24 10:35:28;;;;;;;;;;;;;;;19.53;53.28;101879.41;5074577;28;1788;-59
2021/06/24 10:37:53;;;;;;;;;;;;;;;19.57;53.30;101874.59;5074424;28;1800;-59
2021/06/24 10:40:18;;;;;;;;;;;;;;;19.58;53.05;101876.31;5074711;28;1898;-59
2021/06/24 10:42:43;;;;;;;;;;;;;;;19.57;53.41;101874.59;5072279;28;1815;-60
2021/06/24 10:45:08;;;;;;;;;;;;;;;19.56;53.88;101879.16;5074659;28;1493;-60
2021/06/24 10:47:33;;;;;;;;;;;;;;;19.56;54.26;101876.44;5073282;28;1817;-60
2021/06/24 10:49:58;;;;;;;;;;;;;;;19.54;53.27;101881.13;5073683;28;1847;-60
2021/06/24 10:52:27;;;;;;;;;;;;;;;19.58;53.95;101877.16;5073745;28;1953;-60
2021/06/24 10:54:52;;;;;;;;;;;;;;;19.64;53.42;101871.25;5074444;28;1964;-60
2021/06/24 10:57:17;;;;;;;;;;;;;;;19.70;53.29;101864.44;5070445;28;1789;-61
2021/06/24 10:59:42;;;;;;;;;;;;;;;19.74;53.31;101866.72;5055991;28;1686;-60
2021/06/24 11:02:07;;;;;;;;;;;;;;;19.67;53.71;101860.16;5063729;28;1721;-61
2021/06/24 11:04:33;;;;;;;;;;;;;;;19.67;54.08;101854.75;5063886;28;1731;-60
2021/06/24 11:06:58;;;;;;;;;;;;;;;19.72;53.60;101851.63;5073205;28;1912;-61
2021/06/24 11:09:23;;;;;;;;;;;;;;;19.74;53.67;101855.91;5075026;28;1054;-60
2021/06/24 11:11:48;;;;;;;;;;;;;;;19.73;53.48;101847.94;5075283;28;1470;-60
2021/06/24 11:14:15;;;;;;;;;;;;;;;19.77;53.11;101844.81;5075073;28;1977;-60
2021/06/24 11:16:40;;;;;;;;;;;;;;;19.80;53.22;101853.66;5075156;28;827;-60
2021/06/24 11:19:06;;;;;;;;;;;;;;;19.73;52.83;101847.94;5074774;28;1993;-60
2021/06/24 11:21:31;;;;;;;;;;;;;;;19.75;52.99;101840.53;5075162;28;1929;-60
2021/06/24 11:23:59;;;;;;;;;;;;;;;19.81;53.23;101836.44;5074984;28;791;-60
2021/06/24 11:26:24;;;;;;;;;;;;;;;19.83;52.91;101837.16;5075100;28;1882;-60
2021/06/24 11:28:52;;;;;;;;;;;;;;;19.83;53.15;101834.47;5075514;28;1631;-60
2021/06/24 11:31:19;;;;;;;;;;;;;;;19.83;52.83;101834.47;5075009;28;920;-60
2021/06/24 11:33:52;;;;;;;;;;;;;;;19.81;52.58;101844.56;5075254;28;1959;-60
2021/06/24 11:36:19;;;;;;;;;;;;;;;19.81;53.35;101839.16;5074463;28;1975;-59
2021/06/24 11:38:45;;;;;;;;;;;;;;;19.77;53.30;101836.72;5074973;28;939;-59
2021/06/24 11:41:10;;;;;;;;;;;;;;;19.75;52.42;101833.28;5077163;28;851;-59
2021/06/24 11:43:35;;;;;;;;;;;;;;;19.80;53.04;101832.03;5079328;28;1005;-60
2021/06/24 11:46:01;;;;;;;;;;;;;;;19.85;52.79;101838.75;5078519;28;1875;-59
2021/06/24 11:48:26;;;;;;;;;;;;;;;19.87;52.50;101839.47;5079292;28;819;-59
2021/06/24 12:04:21;;;;;;;;;;;;;;;19.94;52.54;101828.94;5073131;28;1502;-60
2021/06/24 12:06:47;;;;;;;;;;;;;;;19.94;52.67;101821.69;5076561;28;1481;-60
2021/06/24 12:09:12;;;;;;;;;;;;;;;19.95;52.75;101830.66;5059297;28;1514;-60
2021/06/24 12:11:37;;;;;;;;;;;;;;;19.97;52.62;101825.97;5076253;28;1560;-60
2021/06/24 12:14:02;;;;;;;;;;;;;;;19.95;52.46;101830.66;5077194;28;1938;-60
2021/06/24 12:16:27;;;;;;;;;;;;;;;19.94;52.19;101820.84;5077796;28;1839;-60
2021/06/24 12:18:52;;;;;;;;;;;;;;;20.00;52.00;101817.59;5075095;28;2581;-61
2021/06/24 12:21:17;;;;;;;;;;;;;;;20.03;52.62;101815.47;5075887;28;1909;-60
2021/06/24 12:23:42;;;;;;;;;;;;;;;20.05;52.19;101823.47;5075787;28;1786;-61
2021/06/24 12:26:08;;;;;;;;;;;;;;;20.01;52.62;101822.00;5075730;28;1729;-60
2021/06/24 12:28:33;;;;;;;;;;;;;;;20.04;52.69;101819.91;5075718;28;1770;-60
2021/06/24 12:30:58;;;;;;;;;;;;;;;20.03;53.26;101822.75;5076210;28;1845;-60
2021/06/24 12:33:26;;;;;;;;;;;;;;;20.06;52.77;101825.19;5075668;28;2012;-59
2021/06/24 12:35:51;;;;;;;;;;;;;;;20.10;52.03;101821.19;5073161;28;1837;-60
2021/06/24 12:38:17;;;;;;;;;;;;;;;20.14;52.60;101819.91;5074756;28;2031;-59
2021/06/24 12:40:43;;;;;;;;;;;;;;;20.16;51.95;101819.78;5076074;28;1837;-60
2021/06/24 12:43:08;;;;;;;;;;;;;;;20.12;52.61;101811.06;5075664;28;1829;-60
2021/06/24 12:45:35;;;;;;;;;;;;;;;20.15;52.63;101824.34;5076656;28;1721;-60
2021/06/24 12:48:01;;;;;;;;;;;;;;;20.14;52.46;101813.66;5073808;28;1636;-60
2021/06/24 12:50:26;;;;;;;;;;;;;;;20.11;53.11;101815.63;5058246;28;2283;-60